sensor_id;sensor_type;location;lat;lon;timestamp;pressure;altitude;pressure_sealevel;temperature;humidity
79577;BME280;69045;48.136;11.386;2024-01-07T00:02:23;94465.56;;;5.91;67.61
79577;BME280;69045;48.136;11.386;2024-01-07T00:04:51;94468.34;;;5.96;67.96
79577;BME280;69045;48.136;11.386;2024-01-07T00:07:21;94467.91;;;5.99;66.94
79577;BME280;69045;48.136;11.386;2024-01-07T00:09:49;94466.13;;;5.93;67.14
79577;BME280;69045;48.136;11.386;2024-01-07T00:12:17;94467.53;;;5.89;68.13
79577;BME280;69045;48.136;11.386;2024-01-07T00:14:45;94470.75;;;5.91;67.26
79577;BME280;69045;48.136;11.386;2024-01-07T00:17:13;94471.53;;;5.92;67.25
79577;BME280;69045;48.136;11.386;2024-01-07T00:19:40;94469.13;;;5.90;67.44
79577;BME280;69045;48.136;11.386;2024-01-07T00:22:08;94463.31;;;5.88;67.78
79577;BME280;69045;48.136;11.386;2024-01-07T00:24:38;94468.53;;;5.88;67.56
79577;BME280;69045;48.136;11.386;2024-01-07T00:27:06;94465.13;;;5.88;67.92
79577;BME280;69045;48.136;11.386;2024-01-07T00:29:35;94463.75;;;5.92;68.04
79577;BME280;69045;48.136;11.386;2024-01-07T00:32:04;94468.34;;;5.90;68.10
79577;BME280;69045;48.136;11.386;2024-01-07T00:34:32;94466.53;;;5.90;68.01
79577;BME280;69045;48.136;11.386;2024-01-07T00:37:00;94466.72;;;5.89;67.30
79577;BME280;69045;48.136;11.386;2024-01-07T00:39:28;94467.38;;;5.84;67.90
79577;BME280;69045;48.136;11.386;2024-01-07T00:41:57;94468.38;;;5.83;68.22
79577;BME280;69045;48.136;11.386;2024-01-07T00:44:25;94471.56;;;5.85;67.72
79577;BME280;69045;48.136;11.386;2024-01-07T00:46:53;94464.34;;;5.87;68.18
79577;BME280;69045;48.136;11.386;2024-01-07T00:49:21;94462.53;;;5.88;67.77
79577;BME280;69045;48.136;11.386;2024-01-07T00:51:49;94465.56;;;5.85;67.47
79577;BME280;69045;48.136;11.386;2024-01-07T00:54:17;94466.94;;;5.87;67.53
79577;BME280;69045;48.136;11.386;2024-01-07T00:56:45;94466.34;;;5.85;68.36
79577;BME280;69045;48.136;11.386;2024-01-07T00:59:14;94467.38;;;5.84;67.60
79577;BME280;69045;48.136;11.386;2024-01-07T01:01:42;94470.38;;;5.81;68.31
79577;BME280;69045;48.136;11.386;2024-01-07T01:04:10;94465.97;;;5.82;67.38
79577;BME280;69045;48.136;11.386;2024-01-07T01:06:38;94467.16;;;5.86;67.64
79577;BME280;69045;48.136;11.386;2024-01-07T01:09:06;94467.38;;;5.84;68.05
79577;BME280;69045;48.136;11.386;2024-01-07T01:11:34;94477.75;;;5.84;68.19
79577;BME280;69045;48.136;11.386;2024-01-07T01:14:02;94481.16;;;5.85;67.34
79577;BME280;69045;48.136;11.386;2024-01-07T01:16:32;94476.97;;;5.84;68.19
79577;BME280;69045;48.136;11.386;2024-01-07T01:19:00;94471.56;;;5.85;67.55
79577;BME280;69045;48.136;11.386;2024-01-07T01:21:28;94475.78;;;5.80;68.06
79577;BME280;69045;48.136;11.386;2024-01-07T01:23:56;94474.19;;;5.79;67.94
79577;BME280;69045;48.136;11.386;2024-01-07T01:26:24;94478.16;;;5.81;68.60
79577;BME280;69045;48.136;11.386;2024-01-07T01:28:52;94483.97;;;5.83;67.70
79577;BME280;69045;48.136;11.386;2024-01-07T01:31:20;94481.72;;;5.87;67.64
79577;BME280;69045;48.136;11.386;2024-01-07T01:33:50;94473.75;;;5.82;68.52
79577;BME280;69045;48.136;11.386;2024-01-07T01:36:18;94479.16;;;5.80;68.00
79577;BME280;69045;48.136;11.386;2024-01-07T01:38:46;94472.38;;;5.79;68.47
79577;BME280;69045;48.136;11.386;2024-01-07T01:41:15;94475.56;;;5.81;67.48
79577;BME280;69045;48.136;11.386;2024-01-07T01:43:43;94478.00;;;5.76;68.28
79577;BME280;69045;48.136;11.386;2024-01-07T01:46:13;94476.78;;;5.79;68.20
79577;BME280;69045;48.136;11.386;2024-01-07T01:48:42;94473.56;;;5.83;68.07
79577;BME280;69045;48.136;11.386;2024-01-07T01:51:12;94479.34;;;5.85;68.12
79577;BME280;69045;48.136;11.386;2024-01-07T01:53:40;94475.16;;;5.84;67.90
79577;BME280;69045;48.136;11.386;2024-01-07T01:56:08;94466.34;;;5.85;67.33
79577;BME280;69045;48.136;11.386;2024-01-07T01:58:36;94471.94;;;5.82;68.10
79577;BME280;69045;48.136;11.386;2024-01-07T02:01:04;94471.38;;;5.80;67.48
79577;BME280;69045;48.136;11.386;2024-01-07T02:03:33;94465.81;;;5.77;67.60
79577;BME280;69045;48.136;11.386;2024-01-07T02:06:02;94470.00;;;5.78;67.65
79577;BME280;69045;48.136;11.386;2024-01-07T02:08:32;94468.41;;;5.77;68.22
79577;BME280;69045;48.136;11.386;2024-01-07T02:11:14;94470.78;;;5.78;67.85
79577;BME280;69045;48.136;11.386;2024-01-07T02:13:42;94474.38;;;5.84;67.62
79577;BME280;69045;48.136;11.386;2024-01-07T02:16:10;94470.56;;;5.80;67.82
79577;BME280;69045;48.136;11.386;2024-01-07T02:18:41;94470.22;;;5.76;68.31
79577;BME280;69045;48.136;11.386;2024-01-07T02:21:10;94468.41;;;5.77;68.44
79577;BME280;69045;48.136;11.386;2024-01-07T02:23:40;94467.41;;;5.78;68.15
79577;BME280;69045;48.136;11.386;2024-01-07T02:26:09;94467.63;;;5.76;67.48
79577;BME280;69045;48.136;11.386;2024-01-07T02:28:37;94469.78;;;5.79;67.80
79577;BME280;69045;48.136;11.386;2024-01-07T02:31:05;94463.78;;;5.79;67.76
79577;BME280;69045;48.136;11.386;2024-01-07T02:33:33;94460.00;;;5.74;67.51
79577;BME280;69045;48.136;11.386;2024-01-07T02:36:01;94468.22;;;5.71;68.30
79577;BME280;69045;48.136;11.386;2024-01-07T02:38:29;94462.03;;;5.66;68.71
79577;BME280;69045;48.136;11.386;2024-01-07T02:40:57;94470.84;;;5.65;68.05
79577;BME280;69045;48.136;11.386;2024-01-07T02:43:26;94465.44;;;5.66;68.12
79577;BME280;69045;48.136;11.386;2024-01-07T02:45:54;94460.66;;;5.70;68.49
79577;BME280;69045;48.136;11.386;2024-01-07T02:48:22;94464.06;;;5.64;68.07
79577;BME280;69045;48.136;11.386;2024-01-07T02:50:51;94466.06;;;5.62;68.53
79577;BME280;69045;48.136;11.386;2024-01-07T02:53:19;94465.06;;;5.63;68.41
79577;BME280;69045;48.136;11.386;2024-01-07T02:55:47;94458.44;;;5.67;68.19
79577;BME280;69045;48.136;11.386;2024-01-07T02:58:15;94464.41;;;5.74;68.31
79577;BME280;69045;48.136;11.386;2024-01-07T03:00:45;94451.63;;;5.72;67.96
79577;BME280;69045;48.136;11.386;2024-01-07T03:03:13;94456.44;;;5.69;68.72
79577;BME280;69045;48.136;11.386;2024-01-07T03:05:41;94456.25;;;5.70;69.06
79577;BME280;69045;48.136;11.386;2024-01-07T03:08:09;94452.84;;;5.70;68.74
79577;BME280;69045;48.136;11.386;2024-01-07T03:10:37;94449.25;;;5.71;68.44
79577;BME280;69045;48.136;11.386;2024-01-07T03:13:05;94449.63;;;5.68;68.08
79577;BME280;69045;48.136;11.386;2024-01-07T03:15:33;94447.03;;;5.68;68.52
79577;BME280;69045;48.136;11.386;2024-01-07T03:18:03;94454.44;;;5.71;68.88
79577;BME280;69045;48.136;11.386;2024-01-07T03:20:31;94454.44;;;5.71;68.04
79577;BME280;69045;48.136;11.386;2024-01-07T03:22:59;94459.41;;;5.72;67.79
79577;BME280;69045;48.136;11.386;2024-01-07T03:25:29;94456.25;;;5.70;68.31
79577;BME280;69045;48.136;11.386;2024-01-07T03:27:56;94458.63;;;5.72;68.89
79577;BME280;69045;48.136;11.386;2024-01-07T03:30:25;94460.63;;;5.77;68.64
79577;BME280;69045;48.136;11.386;2024-01-07T03:32:53;94465.00;;;5.76;68.19
79577;BME280;69045;48.136;11.386;2024-01-07T03:35:22;94465.00;;;5.76;68.78
79577;BME280;69045;48.136;11.386;2024-01-07T03:37:51;94465.00;;;5.76;67.93
79577;BME280;69045;48.136;11.386;2024-01-07T03:40:19;94465.16;;;5.81;67.95
79577;BME280;69045;48.136;11.386;2024-01-07T03:42:47;94468.16;;;5.85;68.08
79577;BME280;69045;48.136;11.386;2024-01-07T03:45:14;94477.53;;;5.86;68.34
79577;BME280;69045;48.136;11.386;2024-01-07T03:47:42;94474.75;;;5.81;67.99
79577;BME280;69045;48.136;11.386;2024-01-07T03:50:10;94466.19;;;5.73;67.88
79577;BME280;69045;48.136;11.386;2024-01-07T03:52:40;94470.22;;;5.76;68.56
79577;BME280;69045;48.136;11.386;2024-01-07T03:55:08;94471.63;;;5.72;67.75
79577;BME280;69045;48.136;11.386;2024-01-07T03:57:36;94474.41;;;5.77;68.06
79577;BME280;69045;48.136;11.386;2024-01-07T04:00:05;94480.19;;;5.79;68.58
79577;BME280;69045;48.136;11.386;2024-01-07T04:02:33;94477.19;;;5.75;68.00
79577;BME280;69045;48.136;11.386;2024-01-07T04:05:01;94478.00;;;5.76;68.19
79577;BME280;69045;48.136;11.386;2024-01-07T04:07:29;94469.78;;;5.79;68.41
79577;BME280;69045;48.136;11.386;2024-01-07T04:09:59;94476.56;;;5.80;68.62
79577;BME280;69045;48.136;11.386;2024-01-07T04:12:27;94473.38;;;5.78;67.89
79577;BME280;69045;48.136;11.386;2024-01-07T04:14:55;94467.78;;;5.74;68.19
79577;BME280;69045;48.136;11.386;2024-01-07T04:17:23;94464.22;;;5.69;68.79
79577;BME280;69045;48.136;11.386;2024-01-07T04:19:51;94469.03;;;5.72;68.74
79577;BME280;69045;48.136;11.386;2024-01-07T04:22:19;94472.19;;;5.74;68.47
79577;BME280;69045;48.136;11.386;2024-01-07T04:24:47;94473.41;;;5.71;68.25
79577;BME280;69045;48.136;11.386;2024-01-07T04:27:16;94472.19;;;5.74;68.57
79577;BME280;69045;48.136;11.386;2024-01-07T04:29:44;94487.00;;;5.73;67.85
79577;BME280;69045;48.136;11.386;2024-01-07T04:32:12;94485.81;;;5.76;68.04
79577;BME280;69045;48.136;11.386;2024-01-07T04:34:40;94489.19;;;5.77;68.58
79577;BME280;69045;48.136;11.386;2024-01-07T04:37:08;94484.59;;;5.72;68.33
79577;BME280;69045;48.136;11.386;2024-01-07T04:39:36;94492.63;;;5.70;68.65
79577;BME280;69045;48.136;11.386;2024-01-07T04:42:05;94500.81;;;5.67;68.06
79577;BME280;69045;48.136;11.386;2024-01-07T04:44:38;94498.19;;;5.74;68.14
79577;BME280;69045;48.136;11.386;2024-01-07T04:47:25;94502.56;;;5.73;68.38
79577;BME280;69045;48.136;11.386;2024-01-07T04:49:53;94501.56;;;5.74;67.64
79577;BME280;69045;48.136;11.386;2024-01-07T04:52:22;94500.56;;;5.75;68.62
79577;BME280;69045;48.136;11.386;2024-01-07T04:54:50;94501.78;;;5.73;68.46
79577;BME280;69045;48.136;11.386;2024-01-07T04:57:18;94503.59;;;5.72;68.49
79577;BME280;69045;48.136;11.386;2024-01-07T04:59:50;94510.38;;;5.73;68.22
79577;BME280;69045;48.136;11.386;2024-01-07T05:02:18;94515.34;;;5.75;67.57
79577;BME280;69045;48.136;11.386;2024-01-07T05:04:47;94519.16;;;5.79;67.67
79577;BME280;69045;48.136;11.386;2024-01-07T05:07:15;94518.97;;;5.74;67.76
79577;BME280;69045;48.136;11.386;2024-01-07T05:09:43;94518.56;;;5.77;67.54
79577;BME280;69045;48.136;11.386;2024-01-07T05:12:11;94526.94;;;5.79;67.55
79577;BME280;69045;48.136;11.386;2024-01-07T05:14:39;94527.94;;;5.78;67.46
79577;BME280;69045;48.136;11.386;2024-01-07T05:17:10;94526.94;;;5.79;68.51
79577;BME280;69045;48.136;11.386;2024-01-07T05:19:40;94528.16;;;5.77;68.58
79577;BME280;69045;48.136;11.386;2024-01-07T05:22:08;94528.16;;;5.77;68.54
79577;BME280;69045;48.136;11.386;2024-01-07T05:24:36;94529.97;;;5.76;67.91
79577;BME280;69045;48.136;11.386;2024-01-07T05:27:05;94532.97;;;5.73;67.76
79577;BME280;69045;48.136;11.386;2024-01-07T05:29:33;94527.56;;;5.68;67.96
79577;BME280;69045;48.136;11.386;2024-01-07T05:32:01;94530.97;;;5.68;68.37
79577;BME280;69045;48.136;11.386;2024-01-07T05:34:31;94535.59;;;5.66;68.44
79577;BME280;69045;48.136;11.386;2024-01-07T05:36:59;94530.97;;;5.68;68.38
79577;BME280;69045;48.136;11.386;2024-01-07T05:39:27;94529.78;;;5.71;68.66
79577;BME280;69045;48.136;11.386;2024-01-07T05:41:56;94529.16;;;5.69;68.87
79577;BME280;69045;48.136;11.386;2024-01-07T05:44:23;94533.38;;;5.70;68.18
79577;BME280;69045;48.136;11.386;2024-01-07T05:46:55;94531.38;;;5.72;68.07
79577;BME280;69045;48.136;11.386;2024-01-07T05:49:23;94537.78;;;5.69;68.09
79577;BME280;69045;48.136;11.386;2024-01-07T05:51:53;94536.97;;;5.69;68.65
79577;BME280;69045;48.136;11.386;2024-01-07T05:54:21;94538.59;;;5.70;68.15
79577;BME280;69045;48.136;11.386;2024-01-07T05:56:49;94535.97;;;5.70;68.30
79577;BME280;69045;48.136;11.386;2024-01-07T05:59:17;94538.19;;;5.66;69.00
79577;BME280;69045;48.136;11.386;2024-01-07T06:01:45;94537.38;;;5.66;68.56
79577;BME280;69045;48.136;11.386;2024-01-07T06:04:13;94546.41;;;5.63;69.09
79577;BME280;69045;48.136;11.386;2024-01-07T06:06:41;94548.78;;;5.65;68.70
79577;BME280;69045;48.136;11.386;2024-01-07T06:09:11;94546.78;;;5.60;69.12
79577;BME280;69045;48.136;11.386;2024-01-07T06:11:39;94541.00;;;5.65;69.12
79577;BME280;69045;48.136;11.386;2024-01-07T06:14:06;94543.16;;;5.68;69.11
79577;BME280;69045;48.136;11.386;2024-01-07T06:16:34;94556.56;;;5.65;68.46
79577;BME280;69045;48.136;11.386;2024-01-07T06:19:02;94563.16;;;5.67;69.13
79577;BME280;69045;48.136;11.386;2024-01-07T06:21:30;94566.94;;;5.71;68.25
79577;BME280;69045;48.136;11.386;2024-01-07T06:23:58;94569.53;;;5.71;68.11
79577;BME280;69045;48.136;11.386;2024-01-07T06:26:28;94566.38;;;5.69;68.61
79577;BME280;69045;48.136;11.386;2024-01-07T06:28:56;94564.56;;;5.70;68.56
79577;BME280;69045;48.136;11.386;2024-01-07T06:31:23;94566.72;;;5.73;68.40
79577;BME280;69045;48.136;11.386;2024-01-07T06:33:52;94571.75;;;5.68;68.49
79577;BME280;69045;48.136;11.386;2024-01-07T06:36:22;94572.34;;;5.70;68.92
79577;BME280;69045;48.136;11.386;2024-01-07T06:38:51;94576.91;;;5.81;68.34
79577;BME280;69045;48.136;11.386;2024-01-07T06:41:19;94575.31;;;5.80;67.83
79577;BME280;69045;48.136;11.386;2024-01-07T06:43:48;94577.91;;;5.80;68.20
79577;BME280;69045;48.136;11.386;2024-01-07T06:46:19;94582.31;;;5.80;68.22
79577;BME280;69045;48.136;11.386;2024-01-07T06:48:47;94581.72;;;5.78;68.88
79577;BME280;69045;48.136;11.386;2024-01-07T06:51:17;94583.91;;;5.74;68.74
79577;BME280;69045;48.136;11.386;2024-01-07T06:53:45;94589.09;;;5.81;68.61
79577;BME280;69045;48.136;11.386;2024-01-07T06:56:13;94588.50;;;5.79;68.20
79577;BME280;69045;48.136;11.386;2024-01-07T06:58:41;94594.94;;;5.76;67.85
79577;BME280;69045;48.136;11.386;2024-01-07T07:01:10;94599.28;;;5.82;68.31
79577;BME280;69045;48.136;11.386;2024-01-07T07:03:40;94609.66;;;5.82;68.25
79577;BME280;69045;48.136;11.386;2024-01-07T07:06:08;94603.50;;;5.77;68.02
79577;BME280;69045;48.136;11.386;2024-01-07T07:08:36;94608.72;;;5.77;68.32
79577;BME280;69045;48.136;11.386;2024-01-07T07:11:04;94606.91;;;5.77;68.11
79577;BME280;69045;48.136;11.386;2024-01-07T07:13:32;94612.66;;;5.86;69.17
79577;BME280;69045;48.136;11.386;2024-01-07T07:16:00;94609.47;;;5.97;69.01
79577;BME280;69045;48.136;11.386;2024-01-07T07:18:29;94608.06;;;6.01;68.76
79577;BME280;69045;48.136;11.386;2024-01-07T07:20:57;94615.03;;;6.07;68.94
79577;BME280;69045;48.136;11.386;2024-01-07T07:23:25;94613.41;;;6.13;69.53
79577;BME280;69045;48.136;11.386;2024-01-07T07:25:53;94617.22;;;6.17;68.92
79577;BME280;69045;48.136;11.386;2024-01-07T07:28:21;94617.00;;;6.18;68.20
79577;BME280;69045;48.136;11.386;2024-01-07T07:30:49;94626.34;;;6.26;69.22
79577;BME280;69045;48.136;11.386;2024-01-07T07:33:18;94625.94;;;6.29;68.61
79577;BME280;69045;48.136;11.386;2024-01-07T07:35:47;94633.56;;;6.31;67.46
79577;BME280;69045;48.136;11.386;2024-01-07T07:38:15;94632.53;;;6.32;67.02
79577;BME280;69045;48.136;11.386;2024-01-07T07:40:43;94642.72;;;6.33;67.54
79577;BME280;69045;48.136;11.386;2024-01-07T07:43:19;94645.16;;;6.28;67.07
79577;BME280;69045;48.136;11.386;2024-01-07T07:45:47;94636.78;;;6.19;67.79
79577;BME280;69045;48.136;11.386;2024-01-07T07:48:15;94644.78;;;6.18;67.84
79577;BME280;69045;48.136;11.386;2024-01-07T07:50:43;94646.00;;;6.15;67.33
79577;BME280;69045;48.136;11.386;2024-01-07T07:53:13;94659.63;;;6.11;68.20
79577;BME280;69045;48.136;11.386;2024-01-07T07:55:40;94653.81;;;6.09;68.30
79577;BME280;69045;48.136;11.386;2024-01-07T07:58:08;94660.44;;;6.05;67.20
79577;BME280;69045;48.136;11.386;2024-01-07T08:00:36;94661.59;;;6.09;67.14
79577;BME280;69045;48.136;11.386;2024-01-07T08:03:05;94658.84;;;6.04;68.42
79577;BME280;69045;48.136;11.386;2024-01-07T08:05:33;94661.03;;;6.07;68.10
79577;BME280;69045;48.136;11.386;2024-01-07T08:08:01;94663.25;;;6.03;68.37
79577;BME280;69045;48.136;11.386;2024-01-07T08:10:31;94666.66;;;6.04;67.31
79577;BME280;69045;48.136;11.386;2024-01-07T08:13:00;94670.63;;;6.06;67.29
79577;BME280;69045;48.136;11.386;2024-01-07T08:15:28;94675.41;;;6.02;67.78
79577;BME280;69045;48.136;11.386;2024-01-07T08:17:56;94674.81;;;6.07;67.06
79577;BME280;69045;48.136;11.386;2024-01-07T08:20:25;94671.97;;;6.22;70.71
79577;BME280;69045;48.136;11.386;2024-01-07T08:22:53;94678.69;;;6.43;71.61
79577;BME280;69045;48.136;11.386;2024-01-07T08:25:21;94677.34;;;6.78;70.81
79577;BME280;69045;48.136;11.386;2024-01-07T08:27:51;94671.38;;;7.03;68.01
79577;BME280;69045;48.136;11.386;2024-01-07T08:30:19;94680.47;;;7.25;67.88
79577;BME280;69045;48.136;11.386;2024-01-07T08:32:47;94676.41;;;7.54;65.07
79577;BME280;69045;48.136;11.386;2024-01-07T08:35:15;94681.31;;;7.69;64.23
79577;BME280;69045;48.136;11.386;2024-01-07T08:37:46;94675.75;;;7.84;63.54
79577;BME280;69045;48.136;11.386;2024-01-07T08:40:14;94678.16;;;8.04;62.74
79577;BME280;69045;48.136;11.386;2024-01-07T08:42:43;94690.66;;;8.20;62.38
79577;BME280;69045;48.136;11.386;2024-01-07T08:45:13;94686.72;;;8.29;62.11
79577;BME280;69045;48.136;11.386;2024-01-07T08:47:41;94697.06;;;8.42;61.54
79577;BME280;69045;48.136;11.386;2024-01-07T08:50:11;94701.97;;;8.51;60.77
79577;BME280;69045;48.136;11.386;2024-01-07T08:52:40;94701.31;;;8.55;59.59
79577;BME280;69045;48.136;11.386;2024-01-07T08:55:08;94704.72;;;8.37;59.08
79577;BME280;69045;48.136;11.386;2024-01-07T08:57:37;94708.53;;;8.16;59.65
79577;BME280;69045;48.136;11.386;2024-01-07T09:00:06;94712.88;;;8.04;59.96
79577;BME280;69045;48.136;11.386;2024-01-07T09:02:36;94713.25;;;7.83;60.68
79577;BME280;69045;48.136;11.386;2024-01-07T09:05:10;94724.34;;;7.53;61.54
79577;BME280;69045;48.136;11.386;2024-01-07T09:07:39;94727.75;;;7.22;62.59
79577;BME280;69045;48.136;11.386;2024-01-07T09:10:08;94726.44;;;7.06;63.06
79577;BME280;69045;48.136;11.386;2024-01-07T09:12:38;94732.13;;;6.90;63.40
79577;BME280;69045;48.136;11.386;2024-01-07T09:15:07;94726.59;;;6.80;62.86
79577;BME280;69045;48.136;11.386;2024-01-07T09:17:37;94735.63;;;6.71;63.27
79577;BME280;69045;48.136;11.386;2024-01-07T09:20:08;94736.84;;;6.62;63.62
79577;BME280;69045;48.136;11.386;2024-01-07T09:22:36;94739.47;;;6.62;64.68
79577;BME280;69045;48.136;11.386;2024-01-07T09:25:05;94731.47;;;6.56;65.10
79577;BME280;69045;48.136;11.386;2024-01-07T09:27:34;94741.50;;;6.53;65.10
79577;BME280;69045;48.136;11.386;2024-01-07T09:30:02;94737.31;;;6.52;64.36
79577;BME280;69045;48.136;11.386;2024-01-07T09:32:30;94742.75;;;6.44;64.66
79577;BME280;69045;48.136;11.386;2024-01-07T09:35:05;94745.16;;;6.39;64.79
79577;BME280;69045;48.136;11.386;2024-01-07T09:37:34;94740.16;;;6.37;64.28
79577;BME280;69045;48.136;11.386;2024-01-07T09:40:03;94749.72;;;6.37;64.94
79577;BME280;69045;48.136;11.386;2024-01-07T09:42:33;94745.75;;;6.41;64.34
79577;BME280;69045;48.136;11.386;2024-01-07T09:45:02;94750.97;;;6.34;64.45
79577;BME280;69045;48.136;11.386;2024-01-07T09:47:31;94747.56;;;6.27;64.89
79577;BME280;69045;48.136;11.386;2024-01-07T09:50:00;94747.34;;;6.35;64.92
79577;BME280;69045;48.136;11.386;2024-01-07T09:52:31;94751.16;;;6.39;65.03
79577;BME280;69045;48.136;11.386;2024-01-07T09:55:03;94747.13;;;6.43;64.87
79577;BME280;69045;48.136;11.386;2024-01-07T09:57:31;94752.56;;;6.35;65.53
79577;BME280;69045;48.136;11.386;2024-01-07T10:00:01;94754.13;;;6.36;65.37
79577;BME280;69045;48.136;11.386;2024-01-07T10:02:38;94751.16;;;6.33;64.49
79577;BME280;69045;48.136;11.386;2024-01-07T10:05:08;94756.16;;;6.34;65.96
79577;BME280;69045;48.136;11.386;2024-01-07T10:07:37;94750.72;;;6.49;65.40
79577;BME280;69045;48.136;11.386;2024-01-07T10:10:13;94744.69;;;6.55;65.60
79577;BME280;69045;48.136;11.386;2024-01-07T10:12:43;94751.06;;;6.66;65.39
79577;BME280;69045;48.136;11.386;2024-01-07T10:15:11;94751.88;;;6.66;64.04
79577;BME280;69045;48.136;11.386;2024-01-07T10:17:40;94755.72;;;6.57;63.81
79577;BME280;69045;48.136;11.386;2024-01-07T10:20:10;94754.31;;;6.54;64.52
79577;BME280;69045;48.136;11.386;2024-01-07T10:22:39;94752.91;;;6.52;64.85
79577;BME280;69045;48.136;11.386;2024-01-07T10:25:07;94754.75;;;6.45;65.22
79577;BME280;69045;48.136;11.386;2024-01-07T10:27:36;94758.34;;;6.50;65.25
79577;BME280;69045;48.136;11.386;2024-01-07T10:30:06;94759.72;;;6.46;63.88
79577;BME280;69045;48.136;11.386;2024-01-07T10:32:35;94757.72;;;6.42;64.58
79577;BME280;69045;48.136;11.386;2024-01-07T10:35:04;94753.34;;;6.36;65.89
79577;BME280;69045;48.136;11.386;2024-01-07T10:37:33;94758.38;;;6.37;65.89
79577;BME280;69045;48.136;11.386;2024-01-07T10:40:03;94758.94;;;6.39;65.05
79577;BME280;69045;48.136;11.386;2024-01-07T10:42:32;94755.53;;;6.45;65.19
79577;BME280;69045;48.136;11.386;2024-01-07T10:45:01;94754.53;;;6.46;65.15
79577;BME280;69045;48.136;11.386;2024-01-07T10:47:31;94764.34;;;6.51;65.19
79577;BME280;69045;48.136;11.386;2024-01-07T10:50:02;94762.72;;;6.50;65.48
79577;BME280;69045;48.136;11.386;2024-01-07T10:52:32;94759.72;;;6.46;64.78
79577;BME280;69045;48.136;11.386;2024-01-07T10:55:08;94765.72;;;6.47;65.48
79577;BME280;69045;48.136;11.386;2024-01-07T10:57:43;94766.16;;;6.44;65.94
79577;BME280;69045;48.136;11.386;2024-01-07T11:00:13;94764.53;;;6.43;65.80
79577;BME280;69045;48.136;11.386;2024-01-07T11:02:53;94766.34;;;6.42;65.74
79577;BME280;69045;48.136;11.386;2024-01-07T11:05:29;94764.34;;;6.44;65.33
79577;BME280;69045;48.136;11.386;2024-01-07T11:08:06;94767.31;;;6.48;64.99
79577;BME280;69045;48.136;11.386;2024-01-07T11:10:44;94764.91;;;6.53;64.60
79577;BME280;69045;48.136;11.386;2024-01-07T11:13:32;94756.72;;;6.43;65.38
79577;BME280;69045;48.136;11.386;2024-01-07T11:16:02;94766.72;;;6.52;65.63
79577;BME280;69045;48.136;11.386;2024-01-07T11:18:31;94759.72;;;6.53;65.34
79577;BME280;69045;48.136;11.386;2024-01-07T11:21:01;94759.94;;;6.45;65.78
79577;BME280;69045;48.136;11.386;2024-01-07T11:23:31;94767.13;;;6.49;65.52
79577;BME280;69045;48.136;11.386;2024-01-07T11:26:01;94769.72;;;6.49;65.32
79577;BME280;69045;48.136;11.386;2024-01-07T11:28:46;94767.75;;;6.45;64.87
79577;BME280;69045;48.136;11.386;2024-01-07T11:31:16;94765.72;;;6.47;65.72
79577;BME280;69045;48.136;11.386;2024-01-07T11:33:48;94761.53;;;6.46;65.42
79577;BME280;69045;48.136;11.386;2024-01-07T11:36:18;94757.16;;;6.40;65.92
79577;BME280;69045;48.136;11.386;2024-01-07T11:38:48;94755.75;;;6.44;66.65
79577;BME280;69045;48.136;11.386;2024-01-07T11:41:24;94763.91;;;6.54;66.06
79577;BME280;69045;48.136;11.386;2024-01-07T11:43:55;94762.69;;;6.56;67.25
79577;BME280;69045;48.136;11.386;2024-01-07T11:46:32;94761.47;;;6.66;65.77
79577;BME280;69045;48.136;11.386;2024-01-07T11:49:00;94765.88;;;6.72;64.95
79577;BME280;69045;48.136;11.386;2024-01-07T11:51:31;94763.66;;;6.69;64.29
79577;BME280;69045;48.136;11.386;2024-01-07T11:54:01;94761.84;;;6.69;64.32
79577;BME280;69045;48.136;11.386;2024-01-07T11:56:31;94767.84;;;6.70;64.43
79577;BME280;69045;48.136;11.386;2024-01-07T11:58:58;94770.66;;;6.68;64.21
79577;BME280;69045;48.136;11.386;2024-01-07T12:01:26;94769.00;;;6.87;63.75
79577;BME280;69045;48.136;11.386;2024-01-07T12:03:55;94768.34;;;6.98;63.81
79577;BME280;69045;48.136;11.386;2024-01-07T12:06:23;94771.75;;;6.99;63.23
79577;BME280;69045;48.136;11.386;2024-01-07T12:08:51;94779.91;;;7.09;62.09
79577;BME280;69045;48.136;11.386;2024-01-07T12:11:20;94771.75;;;6.99;62.39
79577;BME280;69045;48.136;11.386;2024-01-07T12:13:50;94781.16;;;7.00;62.72
79577;BME280;69045;48.136;11.386;2024-01-07T12:16:18;94780.09;;;7.14;61.70
79577;BME280;69045;48.136;11.386;2024-01-07T12:18:47;94774.00;;;7.27;62.00
79577;BME280;69045;48.136;11.386;2024-01-07T12:21:18;94781.72;;;7.08;62.27
79577;BME280;69045;48.136;11.386;2024-01-07T12:23:49;94791.50;;;7.13;62.36
79577;BME280;69045;48.136;11.386;2024-01-07T12:26:18;94779.84;;;7.22;61.97
79577;BME280;69045;48.136;11.386;2024-01-07T12:28:54;94797.25;;;7.28;61.10
79577;BME280;69045;48.136;11.386;2024-01-07T12:31:22;94787.09;;;7.14;60.58
79577;BME280;69045;48.136;11.386;2024-01-07T12:33:51;94791.84;;;6.85;61.88
79577;BME280;69045;48.136;11.386;2024-01-07T12:36:21;94791.09;;;6.65;62.47
79577;BME280;69045;48.136;11.386;2024-01-07T12:38:50;94794.34;;;6.53;61.98
79577;BME280;69045;48.136;11.386;2024-01-07T12:41:21;94787.56;;;6.39;62.54
79577;BME280;69045;48.136;11.386;2024-01-07T12:43:49;94788.97;;;6.22;63.69
79577;BME280;69045;48.136;11.386;2024-01-07T12:46:19;94805.22;;;6.11;63.94
79577;BME280;69045;48.136;11.386;2024-01-07T12:48:48;94807.81;;;6.04;63.59
79577;BME280;69045;48.136;11.386;2024-01-07T12:51:16;94808.19;;;6.08;63.94
79577;BME280;69045;48.136;11.386;2024-01-07T12:53:49;94810.00;;;6.14;63.65
79577;BME280;69045;48.136;11.386;2024-01-07T12:56:17;94807.19;;;6.15;63.67
79577;BME280;69045;48.136;11.386;2024-01-07T12:58:44;94810.41;;;6.11;63.27
79577;BME280;69045;48.136;11.386;2024-01-07T13:01:13;94811.41;;;6.03;64.28
79577;BME280;69045;48.136;11.386;2024-01-07T13:03:43;94808.97;;;5.88;65.32
79577;BME280;69045;48.136;11.386;2024-01-07T13:06:11;94810.75;;;5.81;65.26
79577;BME280;69045;48.136;11.386;2024-01-07T13:08:39;94818.97;;;5.71;64.99
79577;BME280;69045;48.136;11.386;2024-01-07T13:11:07;94823.16;;;5.72;65.49